Time;durP1;ratioP1;P1;durP2;ratioP2;P2;SDS_P1;SDS_P2;PMS_P1;PMS_P2;Temp;Humidity;BMP_temperature;BMP_pressure;BME280_temperature;BME280_humidity;BME280_pressure;Samples;Min_cycle;Max_cycle;Signal;HPM_P1;HPM_P2
2022/04/25 00:02:24;;;;;;;;;;;16.80;99.90;;;;;;4861349;29;19939;-76
2022/04/25 00:04:51;;;;;;;;;;;16.60;99.90;;;;;;4861401;29;19960;-75
2022/04/25 00:07:18;;;;;;;;;;;16.70;99.90;;;;;;4861508;29;19912;-76
2022/04/25 00:09:45;;;;;;;;;;;16.70;99.90;;;;;;4861516;29;20028;-76
2022/04/25 00:12:11;;;;;;;;;;;16.80;99.90;;;;;;4860695;29;20000;-76
2022/04/25 00:14:38;;;;;;;;;;;16.80;99.90;;;;;;4861344;29;19928;-77
2022/04/25 00:17:05;;;;;;;;;;;16.90;99.90;;;;;;4860725;29;20350;-75
2022/04/25 00:19:31;;;;;;;;;;;17.00;99.90;;;;;;4861030;29;19912;-77
2022/04/25 00:21:58;;;;;;;;;;;17.00;99.90;;;;;;4861075;29;19928;-77
2022/04/25 00:24:25;;;;;;;;;;;17.10;99.90;;;;;;4861033;29;19913;-76
2022/04/25 00:26:51;;;;;;;;;;;17.10;99.90;;;;;;4860377;29;19916;-76
2022/04/25 00:29:18;;;;;;;;;;;17.10;99.90;;;;;;4860872;29;20376;-76
2022/04/25 00:31:44;;;;;;;;;;;17.20;99.90;;;;;;4860662;29;19924;-76
2022/04/25 00:34:11;;;;;;;;;;;17.30;99.90;;;;;;4860925;29;19912;-76
2022/04/25 00:36:38;;;;;;;;;;;17.40;99.90;;;;;;4860685;29;20035;-76
2022/04/25 00:39:04;;;;;;;;;;;17.40;99.90;;;;;;4860648;29;19916;-76
2022/04/25 00:41:31;;;;;;;;;;;17.50;99.90;;;;;;4860054;29;19954;-78
2022/04/25 00:43:58;;;;;;;;;;;17.60;99.90;;;;;;4860763;29;19913;-76
2022/04/25 00:46:26;;;;;;;;;;;17.60;99.90;;;;;;4860465;29;19912;-77
2022/04/25 00:48:53;;;;;;;;;;;17.60;99.90;;;;;;4861014;29;19962;-79
2022/04/25 00:51:20;;;;;;;;;;;17.70;99.90;;;;;;4860676;29;19926;-76
2022/04/25 00:53:48;;;;;;;;;;;17.80;99.90;;;;;;4860345;29;19912;-75
2022/04/25 00:56:16;;;;;;;;;;;17.80;99.90;;;;;;4859936;29;20439;-76
2022/04/25 00:58:46;;;;;;;;;;;17.90;99.90;;;;;;4860577;29;20364;-75
2022/04/25 01:01:13;;;;;;;;;;;18.00;99.90;;;;;;4860250;29;19913;-76
2022/04/25 01:03:40;;;;;;;;;;;18.10;99.90;;;;;;4859928;29;19924;-75
2022/04/25 01:06:06;;;;;;;;;;;18.30;99.90;;;;;;4860402;29;19912;-76
2022/04/25 01:08:34;;;;;;;;;;;18.50;99.90;;;;;;4860501;29;19951;-76
2022/04/25 01:11:02;;;;;;;;;;;18.70;99.90;;;;;;4859540;29;20408;-76
2022/04/25 01:13:29;;;;;;;;;;;19.00;99.90;;;;;;4860407;29;19912;-76
2022/04/25 01:15:55;;;;;;;;;;;19.20;99.90;;;;;;4868685;29;19912;-77
2022/04/25 01:18:22;;;;;;;;;;;19.30;99.90;;;;;;4860682;29;19919;-77
2022/04/25 01:20:50;;;;;;;;;;;19.40;99.90;;;;;;4860442;29;20482;-77
2022/04/25 01:28:51;;;;;;;;;;;19.80;99.90;;;;;;4860086;29;19960;-77
2022/04/25 01:31:18;;;;;;;;;;;19.80;99.90;;;;;;4860243;29;19927;-76
2022/04/25 01:33:45;;;;;;;;;;;19.70;99.90;;;;;;4860099;29;19912;-76
2022/04/25 01:36:12;;;;;;;;;;;19.50;99.90;;;;;;4871258;29;19994;-76
2022/04/25 01:38:39;;;;;;;;;;;19.30;99.90;;;;;;4879540;29;19912;-77
2022/04/25 01:41:06;;;;;;;;;;;19.20;99.90;;;;;;4879368;29;19912;-77
2022/04/25 01:43:38;;;;;;;;;;;19.10;99.90;;;;;;4879248;29;19919;-78
2022/04/25 01:46:05;;;;;;;;;;;19.20;99.90;;;;;;4879452;29;19947;-77
2022/04/25 01:48:32;;;;;;;;;;;19.20;99.90;;;;;;4879438;29;20368;-77
2022/04/25 01:50:59;;;;;;;;;;;19.20;99.90;;;;;;4879026;29;20029;-77
2022/04/25 01:53:25;;;;;;;;;;;19.20;99.90;;;;;;4879144;29;19912;-77
2022/04/25 01:55:52;;;;;;;;;;;19.20;99.90;;;;;;4879272;29;19951;-78
2022/04/25 01:58:19;;;;;;;;;;;19.20;99.90;;;;;;4879360;29;19912;-77
2022/04/25 02:00:46;;;;;;;;;;;19.20;99.90;;;;;;4879041;29;19912;-78
2022/04/25 02:03:13;;;;;;;;;;;19.20;99.90;;;;;;4879034;29;19916;-77
2022/04/25 02:05:40;;;;;;;;;;;19.10;99.90;;;;;;4878990;29;19934;-79
2022/04/25 02:08:06;;;;;;;;;;;19.10;99.90;;;;;;4879175;29;19912;-77
2022/04/25 02:10:33;;;;;;;;;;;19.00;99.90;;;;;;4879159;29;20104;-77
2022/04/25 02:13:00;;;;;;;;;;;19.10;99.90;;;;;;4879178;29;19990;-79
2022/04/25 02:15:26;;;;;;;;;;;19.10;99.90;;;;;;4879013;29;20339;-80
2022/04/25 02:17:53;;;;;;;;;;;19.20;99.90;;;;;;4878990;29;20402;-76
2022/04/25 02:20:20;;;;;;;;;;;19.20;99.90;;;;;;4879202;29;19978;-79
2022/04/25 02:22:47;;;;;;;;;;;19.20;99.90;;;;;;4879011;29;20543;-77
2022/04/25 02:25:14;;;;;;;;;;;19.20;99.90;;;;;;4878934;29;19916;-79
2022/04/25 02:27:40;;;;;;;;;;;19.20;99.90;;;;;;4878864;29;19916;-80
2022/04/25 02:30:07;;;;;;;;;;;19.30;99.90;;;;;;4878674;29;19927;-80
2022/04/25 02:32:35;;;;;;;;;;;19.40;99.90;;;;;;4878997;29;19916;-76
2022/04/25 02:35:01;;;;;;;;;;;19.50;99.90;;;;;;4879046;29;19911;-75
2022/04/25 02:37:28;;;;;;;;;;;19.80;99.90;;;;;;4878764;29;19955;-75
2022/04/25 02:39:55;;;;;;;;;;;19.80;99.90;;;;;;4863305;29;20035;-77
2022/04/25 02:42:21;;;;;;;;;;;19.80;99.90;;;;;;4882275;29;19935;-77
2022/04/25 02:44:48;;;;;;;;;;;19.80;99.90;;;;;;4882082;29;19968;-75
2022/04/25 02:47:15;;;;;;;;;;;19.80;99.90;;;;;;4881903;29;19938;-76
2022/04/25 02:49:41;;;;;;;;;;;19.80;99.90;;;;;;4881969;29;19999;-75
2022/04/25 02:52:08;;;;;;;;;;;19.90;99.90;;;;;;4881925;29;19916;-77
2022/04/25 02:54:35;;;;;;;;;;;20.00;99.90;;;;;;4882180;29;19912;-76
2022/04/25 02:57:01;;;;;;;;;;;20.10;99.90;;;;;;4882021;29;19916;-76
2022/04/25 02:59:28;;;;;;;;;;;20.20;99.90;;;;;;4881964;29;19934;-79
2022/04/25 03:01:55;;;;;;;;;;;20.30;99.90;;;;;;4881585;29;19912;-76
2022/04/25 03:04:21;;;;;;;;;;;20.20;99.90;;;;;;4882104;29;20006;-77
2022/04/25 03:06:48;;;;;;;;;;;20.10;99.90;;;;;;4882316;29;19912;-80
2022/04/25 03:09:15;;;;;;;;;;;20.00;99.90;;;;;;4882388;29;19911;-80
2022/04/25 03:11:41;;;;;;;;;;;19.90;99.90;;;;;;4882243;29;19926;-80
2022/04/25 03:14:08;;;;;;;;;;;19.90;99.90;;;;;;4882425;29;20380;-78
2022/04/25 03:16:35;;;;;;;;;;;19.80;99.90;;;;;;4881743;29;20408;-79
2022/04/25 03:19:01;;;;;;;;;;;19.80;99.90;;;;;;4881785;29;19912;-78
2022/04/25 03:21:28;;;;;;;;;;;19.90;99.90;;;;;;4881644;29;19951;-81
2022/04/25 03:23:55;;;;;;;;;;;19.80;99.90;;;;;;4881282;29;19923;-81
2022/04/25 03:26:22;;;;;;;;;;;19.70;99.90;;;;;;4874732;29;20372;-80
2022/04/25 03:28:49;;;;;;;;;;;19.70;99.90;;;;;;4866671;29;19963;-80
2022/04/25 03:31:15;;;;;;;;;;;19.80;99.90;;;;;;4862119;29;20423;-81
2022/04/25 03:33:42;;;;;;;;;;;19.70;99.90;;;;;;4862001;29;19912;-81
2022/04/25 03:36:09;;;;;;;;;;;19.70;99.90;;;;;;4862027;29;19919;-81
2022/04/25 03:38:35;;;;;;;;;;;19.70;99.90;;;;;;4862137;29;20006;-81
2022/04/25 03:41:02;;;;;;;;;;;19.80;99.90;;;;;;4862042;29;19912;-81
2022/04/25 03:43:31;;;;;;;;;;;19.80;99.90;;;;;;4861691;29;19935;-81
2022/04/25 03:45:58;;;;;;;;;;;19.70;99.90;;;;;;4861877;29;19923;-81
2022/04/25 03:48:25;;;;;;;;;;;19.80;99.90;;;;;;4861642;29;19916;-81
2022/04/25 03:50:51;;;;;;;;;;;19.70;99.90;;;;;;4861041;29;19960;-80
2022/04/25 03:53:18;;;;;;;;;;;19.70;99.90;;;;;;4861687;29;20407;-80
2022/04/25 03:58:30;;;;;;;;;;;19.70;99.90;;;;;;4861796;29;19938;-81
2022/04/25 04:00:57;;;;;;;;;;;19.70;99.90;;;;;;4861652;29;19912;-81
2022/04/25 04:03:24;;;;;;;;;;;19.70;99.90;;;;;;4861272;29;19924;-80
2022/04/25 04:05:52;;;;;;;;;;;19.70;99.90;;;;;;4861192;29;19927;-79
2022/04/25 04:08:19;;;;;;;;;;;19.80;99.90;;;;;;4867194;29;20028;-80
2022/04/25 04:10:46;;;;;;;;;;;19.80;99.90;;;;;;4880612;29;19942;-80
2022/04/25 04:13:12;;;;;;;;;;;19.70;99.90;;;;;;4880710;29;20415;-79
2022/04/25 04:15:40;;;;;;;;;;;19.80;99.90;;;;;;4880358;29;19912;-80
2022/04/25 04:18:07;;;;;;;;;;;19.70;99.90;;;;;;4880299;29;19960;-78
2022/04/25 04:20:34;;;;;;;;;;;19.80;99.90;;;;;;4880374;29;19915;-77
2022/04/25 04:23:01;;;;;;;;;;;19.90;99.90;;;;;;4880312;29;19912;-77
2022/04/25 04:25:28;;;;;;;;;;;20.00;99.90;;;;;;4880511;29;19995;-77
2022/04/25 04:27:54;;;;;;;;;;;20.00;99.90;;;;;;4880254;29;19919;-77
2022/04/25 04:30:21;;;;;;;;;;;20.00;99.90;;;;;;4880034;29;19932;-78
2022/04/25 04:32:48;;;;;;;;;;;20.00;99.90;;;;;;4880032;29;19912;-77
2022/04/25 04:36:17;;;;;;;;;;;20.10;99.90;;;;;;4863186;29;20316;-77
2022/04/25 04:38:03;;;;;;;;;;;20.20;99.90;;;;;;4880005;29;20011;-77
2022/04/25 04:40:30;;;;;;;;;;;20.30;99.90;;;;;;4879804;29;19996;-75
2022/04/25 04:42:57;;;;;;;;;;;20.20;99.90;;;;;;4879815;29;19963;-76
2022/04/25 04:45:25;;;;;;;;;;;20.20;99.90;;;;;;4880242;29;20291;-76
2022/04/25 04:47:51;;;;;;;;;;;20.20;99.90;;;;;;4879828;29;20052;-77
2022/04/25 04:50:18;;;;;;;;;;;20.20;99.90;;;;;;4879849;29;19916;-76
2022/04/25 04:52:46;;;;;;;;;;;20.10;99.90;;;;;;4879905;29;19915;-76
2022/04/25 04:55:12;;;;;;;;;;;20.00;99.90;;;;;;4879992;29;20427;-76
2022/04/25 04:57:39;;;;;;;;;;;19.90;99.90;;;;;;4879416;29;20367;-76
2022/04/25 05:00:07;;;;;;;;;;;19.80;99.90;;;;;;4879471;29;19912;-76
2022/04/25 05:02:34;;;;;;;;;;;19.80;99.90;;;;;;4879249;29;20026;-76
2022/04/25 05:05:00;;;;;;;;;;;19.70;99.90;;;;;;4879586;29;20014;-76
2022/04/25 05:07:27;;;;;;;;;;;19.60;99.90;;;;;;4879742;29;19960;-76
2022/04/25 05:09:54;;;;;;;;;;;19.50;99.90;;;;;;4879228;29;20376;-76
2022/04/25 05:12:21;;;;;;;;;;;19.50;99.90;;;;;;4879693;29;19968;-76
2022/04/25 05:14:47;;;;;;;;;;;19.60;99.90;;;;;;4879266;29;20360;-77
2022/04/25 05:17:14;;;;;;;;;;;19.60;99.90;;;;;;4879485;29;19918;-76
2022/04/25 05:19:40;;;;;;;;;;;19.60;99.90;;;;;;4879364;29;19912;-76
2022/04/25 05:22:07;;;;;;;;;;;19.70;99.90;;;;;;4879584;29;20484;-75
2022/04/25 05:24:34;;;;;;;;;;;19.70;99.90;;;;;;4879493;29;20279;-76
2022/04/25 05:27:00;;;;;;;;;;;19.70;99.90;;;;;;4879565;29;20360;-76
2022/04/25 05:29:27;;;;;;;;;;;19.70;99.90;;;;;;4879461;29;19948;-75
2022/04/25 05:31:55;;;;;;;;;;;19.70;99.90;;;;;;4879117;29;20297;-75
2022/04/25 05:34:22;;;;;;;;;;;19.70;99.90;;;;;;4879758;29;19916;-77
2022/04/25 05:36:48;;;;;;;;;;;19.70;99.90;;;;;;4879458;29;19940;-77
2022/04/25 05:39:15;;;;;;;;;;;19.70;99.90;;;;;;4879420;29;19920;-77
2022/04/25 05:41:42;;;;;;;;;;;19.70;99.90;;;;;;4879317;29;19919;-78
2022/04/25 05:44:10;;;;;;;;;;;19.60;99.90;;;;;;4879281;29;19919;-77
2022/04/25 05:46:36;;;;;;;;;;;19.70;99.90;;;;;;4879538;29;19912;-77
2022/04/25 05:52:02;;;;;;;;;;;19.70;99.90;;;;;;4879131;29;19985;-78
2022/04/25 05:54:32;;;;;;;;;;;19.70;99.90;;;;;;4879180;29;20003;-78
2022/04/25 05:56:59;;;;;;;;;;;19.70;99.90;;;;;;4879269;29;19951;-77
2022/04/25 05:59:27;;;;;;;;;;;19.60;99.90;;;;;;4879222;29;19919;-78
2022/04/25 06:01:53;;;;;;;;;;;19.70;99.90;;;;;;4878918;29;19944;-79
2022/04/25 06:04:21;;;;;;;;;;;19.70;99.90;;;;;;4878963;29;19928;-79
2022/04/25 06:06:48;;;;;;;;;;;19.70;99.90;;;;;;4878929;29;19912;-80
2022/04/25 06:09:16;;;;;;;;;;;19.60;99.90;;;;;;4879232;29;20014;-80
2022/04/25 06:11:44;;;;;;;;;;;19.60;99.90;;;;;;4878897;29;19943;-79
2022/04/25 06:14:11;;;;;;;;;;;19.50;99.90;;;;;;4879424;29;19967;-79
2022/04/25 06:16:37;;;;;;;;;;;19.50;99.90;;;;;;4882871;29;19911;-79
2022/04/25 06:19:04;;;;;;;;;;;19.40;99.90;;;;;;4882519;29;20420;-80
2022/04/25 06:21:31;;;;;;;;;;;19.40;99.90;;;;;;4882576;29;19912;-79
2022/04/25 06:24:00;;;;;;;;;;;19.40;99.90;;;;;;4882792;29;19918;-80
2022/04/25 06:26:28;;;;;;;;;;;19.40;99.90;;;;;;4882462;29;19918;-79
2022/04/25 06:28:55;;;;;;;;;;;19.40;99.90;;;;;;4882443;29;20304;-79
2022/04/25 06:31:23;;;;;;;;;;;19.40;99.90;;;;;;4882391;29;19991;-79
2022/04/25 06:33:49;;;;;;;;;;;19.40;99.90;;;;;;4882296;29;20445;-77
2022/04/25 06:36:16;;;;;;;;;;;19.30;99.90;;;;;;4882266;29;19919;-80
2022/04/25 06:38:43;;;;;;;;;;;19.30;99.90;;;;;;4882260;29;20255;-80
2022/04/25 06:41:10;;;;;;;;;;;19.30;99.90;;;;;;4882413;29;19919;-80
2022/04/25 06:43:37;;;;;;;;;;;19.20;99.90;;;;;;4882179;29;19911;-79
2022/04/25 06:46:04;;;;;;;;;;;19.20;99.90;;;;;;4882326;29;19939;-80
2022/04/25 06:48:31;;;;;;;;;;;19.10;99.90;;;;;;4882298;29;19967;-79
2022/04/25 06:50:58;;;;;;;;;;;19.10;99.90;;;;;;4880742;29;19967;-78
2022/04/25 06:53:25;;;;;;;;;;;19.10;99.90;;;;;;4879957;29;19916;-80
2022/04/25 06:55:51;;;;;;;;;;;19.10;99.90;;;;;;4879814;29;20283;-79
2022/04/25 06:58:18;;;;;;;;;;;19.10;99.90;;;;;;4880017;29;19939;-79
2022/04/25 07:00:46;;;;;;;;;;;19.20;99.90;;;;;;4880083;29;20376;-79
2022/04/25 07:03:12;;;;;;;;;;;19.20;99.90;;;;;;4879655;29;20003;-79
2022/04/25 07:05:39;;;;;;;;;;;19.10;99.90;;;;;;4879421;29;19941;-82
2022/04/25 07:08:06;;;;;;;;;;;19.10;99.90;;;;;;4879844;29;19911;-80
2022/04/25 07:10:33;;;;;;;;;;;19.10;99.90;;;;;;4879768;29;19916;-79
2022/04/25 07:13:00;;;;;;;;;;;19.10;99.90;;;;;;4879501;29;19912;-80
2022/04/25 07:15:26;;;;;;;;;;;19.10;99.90;;;;;;4879832;29;19926;-82
2022/04/25 07:17:55;;;;;;;;;;;19.00;99.90;;;;;;4879106;29;20002;-80
2022/04/25 07:20:22;;;;;;;;;;;19.00;99.90;;;;;;4879832;29;20700;-80
2022/04/25 07:31:03;;;;;;;;;;;18.90;99.90;;;;;;4879153;29;19926;-80
2022/04/25 07:33:31;;;;;;;;;;;18.90;99.90;;;;;;4879439;29;19912;-79
2022/04/25 07:35:57;;;;;;;;;;;18.80;99.90;;;;;;4879458;29;19959;-80
2022/04/25 07:38:24;;;;;;;;;;;18.70;99.90;;;;;;4878172;29;19951;-80
2022/04/25 07:40:50;;;;;;;;;;;18.60;99.90;;;;;;4877759;29;19935;-78
2022/04/25 07:43:17;;;;;;;;;;;18.60;99.90;;;;;;4874760;29;20368;-80
2022/04/25 07:45:44;;;;;;;;;;;18.60;99.90;;;;;;4878927;29;20030;-78
2022/04/25 07:48:10;;;;;;;;;;;18.60;99.90;;;;;;4878998;29;20423;-79
2022/04/25 07:50:37;;;;;;;;;;;18.50;99.90;;;;;;4879031;29;20014;-78
2022/04/25 07:53:04;;;;;;;;;;;18.50;99.90;;;;;;4878880;29;19916;-80
2022/04/25 07:55:32;;;;;;;;;;;18.50;99.90;;;;;;4877806;29;19960;-79
2022/04/25 07:57:58;;;;;;;;;;;18.50;99.90;;;;;;4878925;29;20304;-80
2022/04/25 08:00:27;;;;;;;;;;;18.50;99.90;;;;;;4878708;29;19912;-79
2022/04/25 08:02:53;;;;;;;;;;;18.50;99.90;;;;;;4878619;29;20450;-79
2022/04/25 08:05:20;;;;;;;;;;;18.40;99.90;;;;;;4878966;29;19931;-79
2022/04/25 08:07:47;;;;;;;;;;;18.50;99.90;;;;;;4878065;29;19923;-79
2022/04/25 08:10:13;;;;;;;;;;;18.50;99.90;;;;;;4878151;29;19992;-78
2022/04/25 08:18:11;;;;;;;;;;;18.50;99.90;;;;;;4878479;29;19960;-79
2022/04/25 08:20:38;;;;;;;;;;;18.50;99.90;;;;;;4877981;29;19919;-79
2022/04/25 08:23:09;;;;;;;;;;;18.60;99.90;;;;;;4878564;29;20542;-79
2022/04/25 08:25:36;;;;;;;;;;;18.60;99.90;;;;;;4877684;29;19919;-81
2022/04/25 08:28:05;;;;;;;;;;;18.50;99.90;;;;;;4878104;29;20435;-80
2022/04/25 08:30:31;;;;;;;;;;;18.50;99.90;;;;;;4878095;29;19942;-79
2022/04/25 08:32:59;;;;;;;;;;;18.50;99.90;;;;;;4877979;29;20002;-80
2022/04/25 08:35:25;;;;;;;;;;;18.50;99.90;;;;;;4877914;29;19919;-80
2022/04/25 08:37:54;;;;;;;;;;;18.50;99.90;;;;;;4877601;29;19912;-80
2022/04/25 08:40:21;;;;;;;;;;;18.50;99.90;;;;;;4877149;29;19916;-80
2022/04/25 08:42:48;;;;;;;;;;;18.50;99.90;;;;;;4877703;29;20002;-77
2022/04/25 08:45:15;;;;;;;;;;;18.40;99.90;;;;;;4878366;29;19919;-79
2022/04/25 08:48:03;;;;;;;;;;;18.40;99.90;;;;;;4877086;29;19965;-78
2022/04/25 08:50:30;;;;;;;;;;;18.40;99.90;;;;;;4877821;29;20394;-79
2022/04/25 08:52:57;;;;;;;;;;;18.30;99.90;;;;;;4877728;29;19938;-78
2022/04/25 08:55:26;;;;;;;;;;;18.30;99.90;;;;;;4877241;29;20393;-80
2022/04/25 08:57:54;;;;;;;;;;;18.30;99.90;;;;;;4877349;29;19919;-79
2022/04/25 09:00:21;;;;;;;;;;;18.30;99.90;;;;;;4877441;29;19912;-80
2022/04/25 09:02:50;;;;;;;;;;;18.30;99.90;;;;;;4877512;29;20252;-80
2022/04/25 09:05:17;;;;;;;;;;;18.30;99.90;;;;;;4878193;29;19986;-79
2022/04/25 09:07:44;;;;;;;;;;;18.20;99.90;;;;;;4879625;29;19916;-79
2022/04/25 09:10:12;;;;;;;;;;;18.20;99.90;;;;;;4879006;29;20391;-80
2022/04/25 09:12:41;;;;;;;;;;;18.20;99.90;;;;;;4879657;29;19915;-80
2022/04/25 09:15:08;;;;;;;;;;;18.20;99.90;;;;;;4879769;29;19967;-79
2022/04/25 09:17:38;;;;;;;;;;;18.10;99.90;;;;;;4879337;29;19916;-78
2022/04/25 09:20:09;;;;;;;;;;;18.00;99.90;;;;;;4879262;29;19912;-78
2022/04/25 09:22:42;;;;;;;;;;;18.00;99.90;;;;;;4862745;29;19919;-79
2022/04/25 09:25:17;;;;;;;;;;;18.00;99.90;;;;;;4878993;29;19951;-78
2022/04/25 09:27:44;;;;;;;;;;;18.10;99.90;;;;;;4879027;29;19920;-79
2022/04/25 09:30:16;;;;;;;;;;;18.10;99.90;;;;;;4879282;29;19998;-78
2022/04/25 09:32:43;;;;;;;;;;;18.10;99.90;;;;;;4879228;29;19964;-78
2022/04/25 09:35:42;;;;;;;;;;;18.00;99.90;;;;;;4879392;29;19912;-77
2022/04/25 09:38:09;;;;;;;;;;;18.10;99.90;;;;;;4821411;29;20368;-77
2022/04/25 09:40:37;;;;;;;;;;;18.10;99.90;;;;;;4861012;29;19928;-77
2022/04/25 09:43:05;;;;;;;;;;;18.10;99.90;;;;;;4860039;29;20110;-79
2022/04/25 09:45:33;;;;;;;;;;;18.10;99.90;;;;;;4860394;29;19919;-78
2022/04/25 09:47:59;;;;;;;;;;;18.20;99.90;;;;;;4860723;29;19990;-78
2022/04/25 09:50:29;;;;;;;;;;;18.20;99.90;;;;;;4863188;29;19941;-78
2022/04/25 09:53:00;;;;;;;;;;;18.20;99.90;;;;;;4864387;29;20368;-78
2022/04/25 09:55:29;;;;;;;;;;;18.10;99.90;;;;;;4864516;29;19919;-77
2022/04/25 09:57:56;;;;;;;;;;;18.10;99.90;;;;;;4863732;29;20316;-78
2022/04/25 10:00:28;;;;;;;;;;;18.10;99.90;;;;;;4864405;29;19919;-77
2022/04/25 10:02:55;;;;;;;;;;;18.10;99.90;;;;;;4864044;29;19960;-77
2022/04/25 10:05:21;;;;;;;;;;;18.00;99.90;;;;;;4862837;29;20324;-77
2022/04/25 10:07:50;;;;;;;;;;;18.00;99.90;;;;;;4864078;29;19950;-78
2022/04/25 10:10:17;;;;;;;;;;;18.00;99.90;;;;;;4864167;29;20014;-79
2022/04/25 10:12:43;;;;;;;;;;;17.90;99.90;;;;;;4863964;29;19920;-78
2022/04/25 10:15:10;;;;;;;;;;;17.90;99.90;;;;;;4864228;29;20325;-78
2022/04/25 10:17:40;;;;;;;;;;;17.80;99.90;;;;;;4863920;29;19912;-78
2022/04/25 10:20:11;;;;;;;;;;;17.80;99.90;;;;;;4863891;29;19915;-78
2022/04/25 10:22:38;;;;;;;;;;;17.80;99.90;;;;;;4864021;29;19912;-78
2022/04/25 10:25:05;;;;;;;;;;;17.70;99.90;;;;;;4863967;29;20339;-78
2022/04/25 10:27:34;;;;;;;;;;;17.70;99.90;;;;;;4863624;29;20394;-77
2022/04/25 10:30:16;;;;;;;;;;;17.70;99.90;;;;;;4864005;29;19923;-76
2022/04/25 10:32:42;;;;;;;;;;;17.70;99.90;;;;;;4863923;29;19916;-77
2022/04/25 10:35:16;;;;;;;;;;;17.60;99.90;;;;;;4863947;29;19912;-79
2022/04/25 10:37:44;;;;;;;;;;;17.60;99.90;;;;;;4863484;29;19919;-78
2022/04/25 10:40:12;;;;;;;;;;;17.60;99.90;;;;;;4862483;29;20364;-77
2022/04/25 10:45:55;;;;;;;;;;;17.60;99.90;;;;;;4863852;29;19961;-77
2022/04/25 10:48:22;;;;;;;;;;;17.60;99.90;;;;;;4863531;29;19936;-77
2022/04/25 10:51:07;;;;;;;;;;;17.60;99.90;;;;;;4863361;29;20003;-77
2022/04/25 10:53:52;;;;;;;;;;;17.50;99.90;;;;;;4863198;29;19920;-77
2022/04/25 10:56:19;;;;;;;;;;;17.60;99.90;;;;;;4863370;29;19963;-77
2022/04/25 10:59:05;;;;;;;;;;;17.60;99.90;;;;;;4863431;29;19919;-78
2022/04/25 11:01:31;;;;;;;;;;;17.60;99.90;;;;;;4862997;29;19937;-79
2022/04/25 11:04:05;;;;;;;;;;;17.50;99.90;;;;;;4863087;29;19932;-79
2022/04/25 11:06:31;;;;;;;;;;;17.50;99.90;;;;;;4863187;29;19912;-77
2022/04/25 11:08:58;;;;;;;;;;;17.50;99.90;;;;;;4863175;29;19938;-77
2022/04/25 11:11:25;;;;;;;;;;;17.50;99.90;;;;;;4862800;29;19927;-77
2022/04/25 11:13:51;;;;;;;;;;;17.50;99.90;;;;;;4862855;29;20003;-77
2022/04/25 11:16:23;;;;;;;;;;;17.50;99.90;;;;;;4863124;29;19917;-77
2022/04/25 11:19:07;;;;;;;;;;;17.50;99.90;;;;;;4863108;29;19912;-77
2022/04/25 11:21:33;;;;;;;;;;;17.40;99.90;;;;;;4862835;29;19959;-77
2022/04/25 11:24:01;;;;;;;;;;;17.40;99.90;;;;;;4862858;29;19912;-78
2022/04/25 11:26:29;;;;;;;;;;;17.40;99.90;;;;;;4862735;29;20412;-77
2022/04/25 11:28:58;;;;;;;;;;;17.40;99.90;;;;;;4862762;29;19920;-77
2022/04/25 11:31:25;;;;;;;;;;;17.40;99.90;;;;;;4862842;29;20073;-77
2022/04/25 11:33:53;;;;;;;;;;;17.40;99.90;;;;;;4862552;29;20286;-77
2022/04/25 11:36:20;;;;;;;;;;;17.40;99.90;;;;;;4862669;29;19920;-77
2022/04/25 11:41:33;;;;;;;;;;;17.40;99.90;;;;;;4862823;29;20022;-77
2022/04/25 11:44:00;;;;;;;;;;;17.40;99.90;;;;;;4862588;29;19912;-77
2022/04/25 11:46:27;;;;;;;;;;;17.40;99.90;;;;;;4862524;29;19919;-77
2022/04/25 11:48:55;;;;;;;;;;;17.30;99.90;;;;;;4862451;29;19913;-77
2022/04/25 11:51:25;;;;;;;;;;;17.30;99.90;;;;;;4862408;29;19921;-77
2022/04/25 11:53:54;;;;;;;;;;;17.30;99.90;;;;;;4862249;29;20448;-77
2022/04/25 11:56:24;;;;;;;;;;;17.20;99.90;;;;;;4862202;29;20278;-78
2022/04/25 11:58:51;;;;;;;;;;;17.20;99.90;;;;;;4862454;29;20383;-78
2022/04/25 12:01:36;;;;;;;;;;;17.20;99.90;;;;;;4862315;29;19923;-77
2022/04/25 12:04:18;;;;;;;;;;;17.30;99.90;;;;;;4862032;29;20373;-77
2022/04/25 12:06:52;;;;;;;;;;;17.30;99.90;;;;;;4862167;29;19964;-78
2022/04/25 12:17:37;;;;;;;;;;;17.50;99.90;;;;;;4862154;29;19964;-78
2022/04/25 12:20:04;;;;;;;;;;;17.40;99.90;;;;;;4861875;29;19917;-78
2022/04/25 12:22:31;;;;;;;;;;;17.50;99.90;;;;;;4860684;29;20336;-78
2022/04/25 12:25:11;;;;;;;;;;;17.50;99.90;;;;;;4861872;29;19919;-78
2022/04/25 12:27:38;;;;;;;;;;;17.50;99.90;;;;;;4861502;29;19912;-77
2022/04/25 12:30:07;;;;;;;;;;;17.50;99.90;;;;;;4861689;29;19916;-77
2022/04/25 12:32:34;;;;;;;;;;;17.50;99.90;;;;;;4861758;29;19919;-78
2022/04/25 12:35:01;;;;;;;;;;;17.50;99.90;;;;;;4861752;29;19919;-77
2022/04/25 12:37:27;;;;;;;;;;;17.50;99.90;;;;;;4861728;29;20291;-78
2022/04/25 12:40:01;;;;;;;;;;;17.50;99.90;;;;;;4861361;29;20314;-79
2022/04/25 12:42:47;;;;;;;;;;;17.40;99.90;;;;;;4861451;29;19912;-78
2022/04/25 12:45:14;;;;;;;;;;;17.40;99.90;;;;;;4861565;29;19923;-78
2022/04/25 12:47:54;;;;;;;;;;;17.40;99.90;;;;;;4861295;29;20049;-77
2022/04/25 12:50:38;;;;;;;;;;;17.40;99.90;;;;;;4860422;29;20010;-77
2022/04/25 12:53:06;;;;;;;;;;;17.40;99.90;;;;;;4860213;29;19913;-79
2022/04/25 12:55:48;;;;;;;;;;;17.40;99.90;;;;;;4861376;29;19916;-78
2022/04/25 12:58:16;;;;;;;;;;;17.40;99.90;;;;;;4860139;29;19923;-78
2022/04/25 13:00:43;;;;;;;;;;;17.40;99.90;;;;;;4861201;29;19919;-78
2022/04/25 13:03:11;;;;;;;;;;;17.40;99.90;;;;;;4861141;29;20341;-77
2022/04/25 13:05:38;;;;;;;;;;;17.50;99.90;;;;;;4861118;29;19933;-78
2022/04/25 13:08:04;;;;;;;;;;;17.50;99.90;;;;;;4861264;29;19912;-77
2022/04/25 13:10:31;;;;;;;;;;;17.50;99.90;;;;;;4860905;29;19916;-77
2022/04/25 13:12:58;;;;;;;;;;;17.50;99.90;;;;;;4861195;29;19923;-78
2022/04/25 13:15:31;;;;;;;;;;;17.60;99.90;;;;;;4861198;29;19913;-79
2022/04/25 13:17:58;;;;;;;;;;;17.60;99.90;;;;;;4861053;29;19912;-77
2022/04/25 13:20:30;;;;;;;;;;;17.60;99.90;;;;;;4861055;29;20094;-77
2022/04/25 13:22:56;;;;;;;;;;;17.60;99.90;;;;;;4861097;29;19919;-77
2022/04/25 13:25:23;;;;;;;;;;;17.60;99.90;;;;;;4860219;29;19920;-78
2022/04/25 13:27:53;;;;;;;;;;;17.60;99.90;;;;;;4860659;29;19916;-78
2022/04/25 13:30:21;;;;;;;;;;;17.60;99.90;;;;;;4860887;29;20361;-78
2022/04/25 13:32:49;;;;;;;;;;;17.70;99.90;;;;;;4860888;29;19912;-77
2022/04/25 13:35:16;;;;;;;;;;;17.80;99.90;;;;;;4860707;29;20364;-77
2022/04/25 13:37:42;;;;;;;;;;;17.80;99.90;;;;;;4859490;29;19920;-77
2022/04/25 13:40:09;;;;;;;;;;;17.80;99.90;;;;;;4860945;29;19912;-78
2022/04/25 13:42:37;;;;;;;;;;;17.80;99.90;;;;;;4860664;29;19920;-78
2022/04/25 13:45:04;;;;;;;;;;;17.80;99.90;;;;;;4860677;29;19941;-79
2022/04/25 13:47:30;;;;;;;;;;;17.90;99.90;;;;;;4860685;29;19912;-78
2022/04/25 13:49:57;;;;;;;;;;;17.90;99.90;;;;;;4860812;29;20285;-80
2022/04/25 13:52:24;;;;;;;;;;;17.90;99.90;;;;;;4860832;29;20315;-79
2022/04/25 13:54:50;;;;;;;;;;;17.90;99.90;;;;;;4860734;29;19912;-78
2022/04/25 13:57:17;;;;;;;;;;;17.90;99.90;;;;;;4860434;29;20427;-79
2022/04/25 13:59:47;;;;;;;;;;;18.00;99.90;;;;;;4860626;29;20019;-79
2022/04/25 14:04:59;;;;;;;;;;;17.90;99.90;;;;;;4860534;29;20022;-80
2022/04/25 14:07:25;;;;;;;;;;;17.90;99.90;;;;;;4860569;29;19918;-77
2022/04/25 14:09:52;;;;;;;;;;;18.00;99.90;;;;;;4860427;29;19919;-80
2022/04/25 14:12:19;;;;;;;;;;;17.80;99.90;;;;;;4860339;29;20007;-78
2022/04/25 14:14:45;;;;;;;;;;;17.80;99.90;;;;;;4860612;29;19959;-79
2022/04/25 14:17:12;;;;;;;;;;;17.70;99.90;;;;;;4860498;29;19935;-78
2022/04/25 14:19:39;;;;;;;;;;;17.60;99.90;;;;;;4860182;29;19912;-80
2022/04/25 14:22:06;;;;;;;;;;;17.60;99.90;;;;;;4860529;29;20447;-78
2022/04/25 14:24:32;;;;;;;;;;;17.50;99.90;;;;;;4860420;29;20387;-79
2022/04/25 14:26:59;;;;;;;;;;;17.50;99.90;;;;;;4860306;29;19920;-79
2022/04/25 14:29:26;;;;;;;;;;;17.50;99.90;;;;;;4860328;29;19912;-79
2022/04/25 14:31:53;;;;;;;;;;;17.60;99.90;;;;;;4860196;29;19920;-78
2022/04/25 14:34:19;;;;;;;;;;;17.70;99.90;;;;;;4860340;29;19932;-80
2022/04/25 14:36:46;;;;;;;;;;;17.60;99.90;;;;;;4863040;29;19959;-79
2022/04/25 14:39:13;;;;;;;;;;;17.50;99.90;;;;;;4863892;29;20456;-80
2022/04/25 14:41:39;;;;;;;;;;;17.50;99.90;;;;;;4863204;29;19916;-79
2022/04/25 14:44:06;;;;;;;;;;;17.50;99.90;;;;;;4863691;29;19914;-79
2022/04/25 14:46:33;;;;;;;;;;;17.40;99.90;;;;;;4863545;29;19912;-79
2022/04/25 14:48:59;;;;;;;;;;;17.40;99.90;;;;;;4863475;29;20309;-78
2022/04/25 14:54:25;;;;;;;;;;;17.50;99.90;;;;;;4863525;29;19961;-78
2022/04/25 14:56:52;;;;;;;;;;;17.50;99.90;;;;;;4863262;29;20425;-79
2022/04/25 14:59:20;;;;;;;;;;;17.40;99.90;;;;;;4863637;29;19912;-79
2022/04/25 15:01:49;;;;;;;;;;;17.40;99.90;;;;;;4863288;29;19913;-79
2022/04/25 15:04:16;;;;;;;;;;;17.40;99.90;;;;;;4863082;29;19928;-80
2022/04/25 15:06:43;;;;;;;;;;;17.40;99.90;;;;;;4863315;29;20395;-79